x

Buoy B01 - Western Maine Shelf (44030) Wave Buoy

10:04 - Sun 20th Apr 2014 All times are EDT. -4 hours from GMT.

  • Sig Wave height 2.6ft
  • Peak Period 8s
  • Wind
    7mph, 9mph gusts
  • Sea Temp 41°f
  • Air Temp 40°f
  • Sea Pressure 1033.4mb
  • Buoy B01 - Western Maine Shelf
  • Buoy B01 - Western Maine Shelf

More Historic Weather Station data

Upgrade to MSW Pro to gain access to the past 30 days of data for over 8000 Wavebouys and Weather Stations around the globe.

Join Pro

Comparision Forecast

View Surf forecast
   
dim. 04/20 10:04 2.5ft 8s 7 9 mph 1033.4mb 41f 40f
9:04 2.5ft 8s 11
mph
1032.8mb 41f 40f
8:04 2.5ft 11s 11 13 mph 1032.5mb 40f 40f
7:04 3ft 11s 11 13 mph 1032.1mb 40f 40f
6:04 3.5ft 11s 16 20 mph 1030.8mb 40f 40f
4:04 3ft 11s 9 11 mph 1029.6mb 40f 41f
3:04 4ft 11s 7 9 mph 1029.4mb 40f 41f
2:04 4ft 11s 13 16 mph 1028.7mb 41f 43f
1:04 4ft 8s 22 27 mph 1027.7mb 41f 43f
12:04 4.5ft 11s 16 18 mph 1028.5mb 42f 43f
sam. 04/19 11:04 3.5ft 8s 13 16 mph 1028mb 41f 43f
10:04 4.5ft 8s 7 9 mph 1028mb 41f 43f
9:04 4ft 8s 11 16 mph 1026.9mb 41f 44f
8:04 4ft 8s 16 18 mph 1025.8mb 42f 46f
7:04 4ft 11s 13 16 mph 1024.6mb 43f 47f
6:04 4.5ft 8s 18 20 mph 1023.6mb 40f 47f
5:04 4.5ft 11s 13 18 mph 1022.8mb 41f 47f
4:04 3.5ft 11s 18 20 mph 1021.5mb 42f 49f
3:04 4ft 11s 2
mph
1020.8mb 42f 47f
2:04 4.5ft 8s 7
mph
1020.8mb 43f 45f
1:04 6ft 11s 4 9 mph 1021mb 42f 43f
12:04 5ft 11s 4 7 mph 1021mb 42f 42f
11:04 5ft 8s 7
mph
1020.7mb 41f 44f
10:04 6ft 11s 4 9 mph 1020.6mb 41f 44f
9:04 5ft 8s 11 13 mph 1020.4mb 40f 42f
8:04 5.5ft 11s 11 13 mph 1020.4mb 40f 39f
7:04 5ft 11s 11 13 mph 1020.5mb 40f 37f
6:04 4.5ft 11s 11 13 mph 1020.1mb 40f 37f
5:04 5ft 11s 11
mph
1020.5mb 40f 37f
4:04 5ft 11s 11 13 mph 1020.7mb 40f 38f
3:04 5ft 11s 11 13 mph 1020.9mb 40f 38f
2:04 5.5ft 11s 9 13 mph 1021.5mb 40f 38f
1:04 6ft 8s 11 13 mph 1022.8mb 40f 38f
12:04 6ft 11s 9 11 mph 1023.6mb 40f 38f
ven. 04/18 11:04 6.5ft 8s 9 11 mph 1024.2mb 41f 38f
10:04 7ft 11s 9 11 mph 1024.8mb 41f 38f
9:04 7.5ft 11s 7 9 mph 1025.4mb 41f 38f
8:04 7.5ft 11s 7 9 mph 1026.1mb 41f 37f
7:04 6ft 11s 4 7 mph 1026.4mb 41f 37f
6:04 5.5ft 11s 4 7 mph 1027.2mb 41f 37f
5:04 5ft 11s 7 9 mph 1028.1mb 41f 37f
4:04 5.5ft 8s 4 7 mph 1029.3mb 41f 38f
3:04 5ft 6s 4 7 mph 1030.4mb 41f 38f
2:04 5.5ft 8s 7 9 mph 1030.8mb 41f 38f
1:04 5ft 8s 4 7 mph 1031.6mb 41f 38f
12:04 5ft 8s 11 13 mph 1032.6mb 40f 38f
11:04 6ft 8s 7 9 mph 1034.8mb 40f 38f
10:04 5ft 8s 9 11 mph 1035.2mb 40f 38f
9:04 5.5ft 8s 13 18 mph 1034.3mb 40f 37f
8:04 4.5ft 8s 16 20 mph 1034.5mb 40f 36f
7:04 4.5ft 8s 18 20 mph 1034.3mb 40f 36f
6:04 4ft 8s 16 18 mph 1035.9mb 40f 34f
5:04 3.5ft 8s 13 16 mph 1036.6mb 40f 34f
4:04 4.5ft 8s 13 16 mph 1036.3mb 40f 35f
3:04 3.5ft 6s 9 11 mph 1036.4mb 40f 37f
2:04 4ft 6s 9 11 mph 1036.3mb 40f 37f
1:04 4.5ft 6s 9 13 mph 1037.4mb 40f 37f
12:04 4ft 6s 11 13 mph 1038.4mb 40f 37f
jeu. 04/17 11:04 4.5ft 6s 9
mph
1039.2mb 40f 36f
10:04 4.5ft 6s 7 9 mph 1040mb 40f 36f
9:04 4.5ft 6s 4 7 mph 1040.5mb 40f 36f
8:04 5ft 6s 7 9 mph 1040.7mb 40f 36f
7:04 4.5ft 6s 11 13 mph 1041mb 40f 36f
6:04 5ft 11s 11 13 mph 1041.3mb 40f 36f
5:04 5ft 11s 11 16 mph 1041.6mb 40f 36f
4:04 4.5ft 6s 11 16 mph 1041.8mb 40f 35f
3:04 5ft 6s 11 16 mph 1042mb 40f 35f
2:04 5.5ft 6s 16 20 mph 1042.4mb 40f 34f
1:04 5ft 6s 16 20 mph 1042.6mb 40f 34f
12:04 5ft 6s 18 20 mph 1043.4mb 40f 34f
11:04 5ft 6s 18 22 mph 1043.4mb 40f 33f
10:04 5.5ft 5s 18 25 mph 1043.4mb 40f 33f
9:04 5ft 6s 18 25 mph 1043.2mb 40f 33f
8:04 6ft 5s 18 22 mph 1042.8mb 40f 33f
7:04 6ft 11s 20 25 mph 1042mb 40f 32f
6:04 5ft 11s 22 27 mph 1040.9mb 40f 31f
5:04 5.5ft 11s 18 22 mph 1040.5mb 40f 32f
4:04 6ft 11s 18 22 mph 1039.5mb 40f 32f
3:04 5.5ft 11s 20 22 mph 1038.3mb 40f 32f
2:04 5.5ft 11s 20 25 mph 1037.7mb 40f 32f
1:04 4.5ft 11s 20 22 mph 1037.2mb 40f 33f
12:04 4.5ft 11s 16 20 mph 1036.4mb 40f 33f
mer. 04/16 11:04 4ft 11s 18 22 mph 1035.5mb 40f 34f
10:04 4.5ft 11s 16 20 mph 1034.8mb 40f 35f
9:04  -   -  16 20 mph 1033.9mb 40f 36f
8:04 5ft 11s 18 20 mph 1032.4mb 40f 37f
7:04 6.5ft 11s 16 18 mph 1030.8mb 40f 38f
6:04 5.5ft 11s 16 20 mph 1030.1mb 40f 39f
5:04  -   -  16 18 mph 1029mb 40f 39f
4:04 5.5ft 11s 13 16 mph 1027.7mb 40f 39f